FW8109 Weather Reports


time (UTC)temp
F
wind
direction
speed
knots
gust
knots
rain 1hr
in
rain 24hr
in
rain mn
in
humidity
%
barometer
mb
20260509075558 57 165 0.0 0.9 0.00 0.00 0.00 82 1022.8
20260509074558 58 0 0.0 1.7 0.00 0.00 0.00 80 1022.7
20260509073559 59 0 0.0 0.9 0.00 0.00 0.00 78 1022.6
20260509072559 60 0 0.0 0.9 0.00 0.00 0.00 77 1022.5
20260509071035 63 0 0.0 0.9 0.00 0.00 0.00 74 1022.3
20260509064557 65 0 0.0 3.5 0.00 0.00 0.00 71 1022.1
20260509063557 65 134 0.9 3.5 0.00 0.00 0.00 71 1022.0
20260509062559 66 51 0.0 2.6 0.00 0.00 0.00 71 1021.9
20260509061559 67 112 0.0 2.6 0.00 0.00 0.00 70 1021.9
20260509060559 68 0 0.9 2.6 0.00 0.00 0.00 67 1021.8
20260509055558 69 124 0.0 2.6 0.00 0.00 0.00 65 1021.8
20260509054558 71 249 0.0 1.7 0.00 0.00 0.00 65 1021.7
20260509053557 71 0 0.9 3.5 0.00 0.00 0.00 64 1021.7
20260509052556 70 129 0.9 5.2 0.00 0.00 0.00 65 1021.6
20260509051556 71 0 0.9 4.3 0.00 0.00 0.00 64 1021.6
20260509050552 70 168 0.9 5.2 0.00 0.00 0.00 66 1021.6
20260509045553 71 218 0.9 5.2 0.00 0.00 0.00 64 1021.5
20260509044554 71 252 1.7 6.1 0.00 0.00 0.00 63 1021.4
20260509042548 71 165 1.7 3.5 0.00 0.00 0.00 63 1021.4
20260509041548 69 243 1.7 5.2 0.00 0.00 0.00 66 1021.4
20260509041031 69 179 1.7 5.2 0.00 0.00 0.00 67 1021.5
20260509035548 69 236 1.7 5.2 0.00 0.00 0.00 67 1021.5
20260509034548 69 282 1.7 6.1 0.00 0.00 0.00 67 1021.6
20260509033545 69 74 1.7 6.1 0.00 0.00 0.00 65 1021.6
20260509032542 69 54 1.7 6.1 0.00 0.00 0.00 65 1021.7
20260509031543 69 229 1.7 6.1 0.00 0.00 0.00 66 1021.7
20260509030542 70 112 1.7 5.2 0.00 0.00 0.00 62 1021.7
20260509025544 69 232 1.7 5.2 0.00 0.00 0.00 63 1021.8
20260509024541 69 103 1.7 5.2 0.00 0.00 0.00 62 1021.8
20260509024015 69 184 1.7 5.2 0.00 0.00 0.00 62 1021.9
20260509022537 69 216 1.7 4.3 0.00 0.00 0.00 60 1022.0
20260509021536 69 128 1.7 6.1 0.00 0.00 0.00 61 1022.1
20260509021019 68 155 1.7 6.1 0.00 0.00 0.00 61 1022.1
20260509015537 68 122 1.7 6.1 0.00 0.00 0.00 61 1022.3
20260509014535 69 315 1.7 7.0 0.00 0.00 0.00 60 1022.4
20260509013535 68 165 1.7 5.2 0.00 0.00 0.00 60 1022.5
20260509012535 69 159 1.7 5.2 0.00 0.00 0.00 59 1022.6
20260509010536 68 192 1.7 5.2 0.00 0.00 0.00 61 1022.7
20260509005535 68 121 1.7 5.2 0.00 0.00 0.00 61 1022.9
20260509004533 67 163 0.9 3.5 0.00 0.00 0.00 62 1023.1
20260509003530 66 326 0.9 4.3 0.00 0.00 0.00 63 1023.1
20260509002529 66 98 0.9 3.5 0.00 0.00 0.00 64 1023.1
20260509001528 66 30 0.9 3.5 0.00 0.00 0.00 63 1023.1
20260509000528 64 251 0.9 2.6 0.00 0.00 0.00 65 1023.1
20260508235528 63 331 0.9 3.5 0.00 0.00 0.00 66 1023.1
20260508234528 63 83 1.7 4.3 0.00 0.00 0.00 66 1023.2
20260508233529 64 0 1.7 5.2 0.00 0.00 0.00 65 1023.2
20260508232526 63 224 0.9 3.5 0.00 0.00 0.00 66 1023.2
20260508231525 63 229 0.9 4.3 0.00 0.00 0.00 66 1023.2
20260508230526 62 35 0.9 3.5 0.00 0.00 0.00 67 1023.1
20260508225525 61 10 0.9 3.5 0.00 0.00 0.00 69 1023.1
20260508224959 60 58 0.9 3.5 0.00 0.00 0.00 70 1023.1
20260508223524 59 69 0.9 3.5 0.00 0.00 0.00 72 1023.0
20260508222523 57 157 0.9 2.6 0.00 0.00 0.00 75 1023.0
20260508221524 55 52 0.9 3.5 0.00 0.00 0.00 77 1022.9
20260508215523 53 32 0.9 2.6 0.00 0.00 0.00 82 1022.8
20260508213521 50 31 0.0 1.7 0.00 0.00 0.00 87 1022.5
20260508212519 49 307 0.0 1.7 0.00 0.00 0.00 89 1022.3
20260508211519 48 67 0.0 1.7 0.00 0.00 0.00 89 1022.1
20260508210518 47 0 0.0 0.9 0.00 0.00 0.00 89 1022.1
20260508204520 48 0 0.0 1.7 0.00 0.00 0.00 88 1021.8
20260508203517 48 358 0.0 0.9 0.00 0.00 0.00 88 1021.6
20260508202519 48 71 0.0 2.6 0.00 0.00 0.00 88 1021.5
20260508201517 48 76 0.0 2.6 0.00 0.00 0.00 88 1021.5
20260508200516 48 318 0.0 1.7 0.00 0.00 0.00 88 1021.5
20260508195517 48 277 0.0 1.7 0.00 0.00 0.00 87 1021.3
20260508194517 48 329 0.0 0.9 0.00 0.00 0.00 87 1021.2
20260508193516 49 0 0.0 2.6 0.00 0.00 0.00 87 1021.0
20260508192957 49 0 0.0 1.7 0.00 0.00 0.00 87 1020.9
20260508191515 49 334 0.0 2.6 0.00 0.00 0.00 87 1020.8
20260508190953 49 0 0.0 1.7 0.00 0.00 0.00 86 1020.7
20260508185515 49 0 0.0 1.7 0.00 0.00 0.00 86 1020.7
20260508184515 49 0 0.0 1.7 0.00 0.00 0.00 86 1020.6
20260508183516 49 0 0.0 1.7 0.00 0.00 0.00 86 1020.7
20260508182515 49 0 0.0 1.7 0.00 0.00 0.00 86 1020.6
20260508181513 49 14 0.0 1.7 0.00 0.00 0.00 85 1020.6
20260508180513 49 76 0.0 1.7 0.00 0.00 0.00 86 1020.4
20260508175511 49 0 0.0 2.6 0.00 0.00 0.00 87 1020.4
20260508174513 49 0 0.0 1.7 0.00 0.00 0.00 87 1020.4
20260508173512 48 0 0.0 1.7 0.00 0.00 0.00 87 1020.4
20260508172513 48 167 0.0 0.9 0.00 0.00 0.00 87 1020.4
20260508171512 48 0 0.0 1.7 0.00 0.00 0.00 87 1020.4
20260508170513 49 0 0.0 0.9 0.00 0.00 0.00 86 1020.3
20260508165511 49 347 0.0 1.7 0.00 0.00 0.00 85 1020.3
20260508164512 49 58 0.0 1.7 0.00 0.00 0.00 85 1020.3
20260508163512 49 0 0.0 2.6 0.00 0.00 0.00 85 1020.3
20260508162512 49 12 0.0 1.7 0.00 0.00 0.00 85 1020.2
20260508161511 49 0 0.0 0.9 0.00 0.00 0.00 84 1020.2
20260508160512 50 0 0.0 1.7 0.00 0.00 0.00 84 1020.2
20260508155512 50 0 0.0 0.9 0.00 0.00 0.00 82 1020.2
20260508154511 51 0 0.0 1.7 0.00 0.00 0.00 82 1020.2
20260508153509 51 12 0.0 2.6 0.00 0.00 0.00 81 1020.2
20260508152510 51 318 0.0 2.6 0.00 0.00 0.00 81 1020.1
20260508151511 51 306 0.0 1.7 0.00 0.00 0.00 81 1020.2
20260508150509 51 0 0.0 2.6 0.00 0.00 0.00 82 1020.2
20260508145507 51 356 0.0 1.7 0.00 0.00 0.00 82 1020.2
20260508144507 51 15 0.0 1.7 0.00 0.00 0.00 81 1020.2
20260508143508 51 296 0.0 1.7 0.00 0.00 0.00 80 1020.2
20260508142508 51 339 0.0 1.7 0.00 0.00 0.00 80 1020.2
20260508141508 52 0 0.0 1.7 0.00 0.00 0.00 79 1020.2
20260508140508 52 260 0.0 0.9 0.00 0.00 0.00 78 1020.1
20260508135947 53 0 0.0 1.7 0.00 0.00 0.00 77 1020.1
20260508134508 53 0 0.0 1.7 0.00 0.00 0.00 76 1020.1
20260508133505 53 0 0.0 1.7 0.00 0.00 0.00 76 1020.1
20260508132506 53 309 0.0 1.7 0.00 0.00 0.00 76 1020.1
20260508131507 54 41 0.0 1.7 0.00 0.00 0.00 75 1020.1
20260508130503 54 320 0.0 1.7 0.00 0.00 0.00 74 1020.1
20260508125951 55 0 0.0 2.6 0.00 0.00 0.00 74 1020.0
20260508124940 55 0 0.0 1.7 0.00 0.00 0.00 73 1020.0
20260508123500 55 0 0.9 2.6 0.00 0.00 0.00 72 1020.0
20260508122500 55 52 0.0 2.6 0.00 0.00 0.00 72 1019.8
20260508121501 55 288 0.0 1.7 0.00 0.00 0.00 73 1019.9
20260508120501 55 0 0.9 2.6 0.00 0.00 0.00 72 1020.0
20260508115459 55 143 0.0 1.7 0.00 0.00 0.00 71 1019.8
20260508114943 56 31 0.9 4.3 0.00 0.00 0.00 71 1019.8
20260508113458 56 0 0.9 2.6 0.00 0.00 0.00 70 1019.7
20260508112459 56 0 0.9 2.6 0.00 0.00 0.00 71 1019.7
20260508111940 55 0 0.0 2.6 0.00 0.00 0.00 71 1019.6
20260508110456 55 74 0.9 3.5 0.00 0.00 0.00 71 1019.5
20260508105456 55 0 0.0 1.7 0.00 0.00 0.00 71 1019.3
20260508104933 56 0 0.0 2.6 0.00 0.00 0.00 71 1019.2
20260508103453 57 0 0.0 1.7 0.00 0.00 0.00 69 1019.2
20260508102454 58 70 0.0 1.7 0.00 0.00 0.00 67 1018.9
20260508101946 59 0 0.0 0.9 0.00 0.00 0.00 67 1018.8
20260508100454 60 0 0.0 2.6 0.00 0.00 0.00 64 1018.6
20260508095451 61 40 0.0 2.6 0.00 0.00 0.00 63 1018.4
20260508094452 62 50 0.9 1.7 0.00 0.00 0.00 62 1018.3
20260508093450 62 0 0.9 2.6 0.00 0.00 0.00 61 1018.1
20260508092453 63 128 0.0 1.7 0.00 0.00 0.00 61 1017.9
20260508091452 63 0 0.9 2.6 0.00 0.00 0.00 60 1017.9
20260508090450 63 333 0.9 2.6 0.00 0.00 0.00 60 1017.7
20260508085450 64 0 0.0 1.7 0.00 0.00 0.00 60 1017.6
20260508084448 64 92 0.9 2.6 0.00 0.00 0.00 58 1017.3
20260508083919 64 231 0.9 4.3 0.00 0.00 0.00 57 1017.2
20260508082448 64 103 0.9 3.5 0.00 0.00 0.00 57 1017.0
20260508081445 61 79 0.9 2.6 0.00 0.00 0.00 61 1016.9